Time;durP1;ratioP1;P1;durP2;ratioP2;P2;SDS_P1;SDS_P2;PMS_P1;PMS_P2;Temp;Humidity;BMP_temperature;BMP_pressure;BME280_temperature;BME280_humidity;BME280_pressure;Samples;Min_cycle;Max_cycle;Signal;HPM_P1;HPM_P2
2021/01/16 06:09:21;;;;;;;167.30;46.45;;;;;;;-18.48;69.51;99359.10;1837548;77;28109;-61
2021/01/16 06:11:50;;;;;;;165.47;45.05;;;;;;;-18.52;69.49;99358.23;1700843;81;21187;-61
2021/01/16 06:14:19;;;;;;;125.75;38.90;;;;;;;-18.44;69.47;99358.28;1780628;79;21122;-62
2021/01/16 06:16:54;;;;;;;59.83;22.17;;;;;;;-18.41;69.45;99359.16;1773887;79;21160;-61
2021/01/16 06:19:24;;;;;;;77.42;24.32;;;;;;;-18.32;69.52;99364.61;1792472;79;21648;-65
2021/01/16 06:21:54;;;;;;;95.70;30.05;;;;;;;-18.14;69.53;99365.98;1766249;80;21600;-62
2021/01/16 06:24:24;;;;;;;109.57;34.67;;;;;;;-17.90;69.48;99364.48;1745023;80;21375;-58
2021/01/16 06:26:57;;;;;;;56.35;19.12;;;;;;;-17.69;69.19;99367.91;1777431;79;21546;-61
2021/01/16 06:29:29;;;;;;;80.47;27.02;;;;;;;-17.55;68.86;99360.48;1709337;84;21846;-65
2021/01/16 06:32:09;;;;;;;92.57;29.98;;;;;;;-17.49;68.42;99359.26;1772015;79;21200;-66
2021/01/16 06:34:40;;;;;;;65.22;22.75;;;;;;;-17.34;68.25;99370.95;1774608;79;21328;-62
2021/01/16 06:37:14;;;;;;;32.95;15.18;;;;;;;-17.21;67.89;99373.91;1783821;79;21171;-63
2021/01/16 06:39:45;;;;;;;53.85;19.27;;;;;;;-17.11;67.50;99377.70;1767160;79;21329;-57
2021/01/16 06:42:20;;;;;;;50.60;17.00;;;;;;;-17.00;67.23;99369.83;1789077;79;21285;-67
2021/01/16 06:45:11;;;;;;;58.98;20.35;;;;;;;-16.81;66.82;99374.03;1814235;77;22201;-62
2021/01/16 06:47:39;;;;;;;56.02;20.15;;;;;;;-16.79;66.38;99377.36;1779654;78;21288;-62
2021/01/16 06:50:33;;;;;;;81.95;27.67;;;;;;;-16.76;65.95;99380.30;1804414;78;21581;-67
2021/01/16 06:53:02;;;;;;;56.83;20.68;;;;;;;-16.74;65.75;99381.13;1713424;84;21304;-59
2021/01/16 06:58:22;;;;;;;33.08;11.85;;;;;;;-16.56;65.43;99388.63;1714275;82;21197;-60
2021/01/16 07:00:55;;;;;;;36.13;13.60;;;;;;;-16.65;64.85;99389.84;1749627;81;21632;-64
2021/01/16 07:03:26;;;;;;;29.35;12.90;;;;;;;-16.71;64.83;99389.86;1749826;81;21711;-57
2021/01/16 07:05:57;;;;;;;35.48;13.80;;;;;;;-16.71;64.80;99383.20;1745480;81;21180;-59
2021/01/16 07:08:26;;;;;;;23.77;10.53;;;;;;;-16.71;64.83;99383.20;1761784;81;21654;-59
2021/01/16 07:10:55;;;;;;;32.78;12.45;;;;;;;-16.72;64.62;99394.03;1749508;81;21189;-58
2021/01/16 07:13:24;;;;;;;26.12;8.90;;;;;;;-16.73;64.64;99393.62;1769898;81;21610;-59
2021/01/16 07:15:53;;;;;;;18.75;8.68;;;;;;;-16.78;64.56;99390.27;1760637;81;21601;-60
2021/01/16 07:18:23;;;;;;;21.80;8.95;;;;;;;-16.81;64.48;99380.28;1770684;81;21605;-62
2021/01/16 07:21:00;;;;;;;37.30;13.95;;;;;;;-16.83;64.51;99382.34;1770501;81;21158;-59
2021/01/16 07:23:30;;;;;;;33.92;16.10;;;;;;;-16.83;64.64;99376.92;1769521;81;21284;-56
2021/01/16 07:26:02;;;;;;;36.17;14.55;;;;;;;-16.75;64.67;99376.55;1743370;81;21165;-57
2021/01/16 07:28:33;;;;;;;41.08;14.10;;;;;;;-16.71;64.58;99384.86;1769180;80;21287;-61
2021/01/16 07:31:02;;;;;;;48.83;20.50;;;;;;;-16.71;64.47;99376.95;1718944;81;21177;-63
2021/01/16 07:33:31;;;;;;;45.25;18.35;;;;;;;-16.69;64.45;99376.94;1755178;81;21620;-57
2021/01/16 07:36:05;;;;;;;43.20;18.87;;;;;;;-16.70;64.39;99374.89;1701888;84;21169;-59
2021/01/16 07:38:34;;;;;;;35.33;15.90;;;;;;;-16.65;64.55;99379.42;1765467;81;21584;-56
2021/01/16 07:41:02;;;;;;;37.17;15.38;;;;;;;-16.62;64.41;99381.95;1769675;81;21621;-55
2021/01/16 07:43:53;;;;;;;22.82;9.08;;;;;;;-16.56;64.48;99383.63;1746465;81;21332;-57
2021/01/16 07:46:21;;;;;;;37.55;15.03;;;;;;;-16.47;64.39;99379.03;1760814;80;21916;-57
2021/01/16 07:49:14;;;;;;;32.42;12.68;;;;;;;-16.47;64.25;99384.03;1768917;80;21609;-58
2021/01/16 07:51:56;;;;;;;45.67;18.32;;;;;;;-16.39;64.35;99394.89;1725053;82;21778;-56
2021/01/16 07:54:24;;;;;;;29.32;11.63;;;;;;;-16.25;64.25;99393.22;1723209;83;21166;-58
2021/01/16 07:56:59;;;;;;;31.65;12.20;;;;;;;-16.19;64.09;99399.89;1678530;83;22208;-57
2021/01/16 07:59:34;;;;;;;29.30;10.72;;;;;;;-16.13;63.92;99396.97;1712250;83;21581;-57
2021/01/16 08:02:24;;;;;;;32.25;12.58;;;;;;;-16.08;63.89;99400.73;1672207;83;21334;-55
2021/01/16 08:05:19;;;;;;;25.10;8.93;;;;;;;-15.96;63.86;99395.69;1722821;83;21122;-61
2021/01/16 08:07:58;;;;;;;19.42;7.90;;;;;;;-15.82;63.77;99401.95;1663131;86;21591;-56
2021/01/16 08:10:26;;;;;;;19.98;8.90;;;;;;;-15.78;63.17;99409.85;1700596;83;21605;-56
2021/01/16 08:13:00;;;;;;;24.63;9.73;;;;;;;-15.82;63.15;99408.20;1709103;83;21327;-57
2021/01/16 08:15:30;;;;;;;21.37;7.75;;;;;;;-15.74;63.10;99416.53;1716438;83;21303;-58
2021/01/16 08:18:00;;;;;;;18.40;6.30;;;;;;;-15.71;62.81;99420.30;1724888;83;21169;-57
2021/01/16 08:20:35;;;;;;;22.25;7.90;;;;;;;-15.70;62.57;99419.45;1724940;82;21701;-57
2021/01/16 08:23:04;;;;;;;30.00;9.58;;;;;;;-15.74;62.34;99417.78;1672259;85;21671;-61
2021/01/16 08:25:33;;;;;;;21.93;8.05;;;;;;;-15.78;62.48;99416.94;1667358;86;21656;-57
2021/01/16 08:28:04;;;;;;;25.40;8.78;;;;;;;-15.71;62.60;99419.05;1677860;84;21232;-59
2021/01/16 08:30:34;;;;;;;19.65;6.58;;;;;;;-15.66;62.66;99418.59;1674062;84;21472;-58
2021/01/16 08:33:06;;;;;;;18.02;6.28;;;;;;;-15.55;62.52;99410.61;1671662;86;21606;-59
2021/01/16 08:35:48;;;;;;;22.77;6.72;;;;;;;-15.47;62.38;99416.02;1693157;84;21182;-61
2021/01/16 08:38:21;;;;;;;18.40;6.67;;;;;;;-15.47;62.21;99406.83;1672106;84;21588;-62
2021/01/16 08:41:04;;;;;;;22.63;9.13;;;;;;;-15.36;62.30;99418.08;1683783;84;21673;-64
2021/01/16 08:43:44;;;;;;;27.27;9.25;;;;;;;-15.19;62.22;99428.05;1660395;86;21858;-64
2021/01/16 08:46:22;;;;;;;38.28;11.00;;;;;;;-15.11;62.07;99440.95;1689423;84;21190;-63
2021/01/16 08:49:10;;;;;;;33.28;11.15;;;;;;;-14.97;62.16;99435.46;1661918;85;21222;-65
2021/01/16 08:51:54;;;;;;;24.43;10.03;;;;;;;-14.84;61.74;99433.77;1665007;85;22292;-67
2021/01/16 08:54:23;;;;;;;25.90;8.75;;;;;;;-14.77;61.56;99424.53;1728054;83;21354;-61
2021/01/16 08:56:54;;;;;;;16.95;6.80;;;;;;;-14.63;61.13;99433.23;1729243;83;21214;-63
2021/01/16 08:59:31;;;;;;;20.48;7.90;;;;;;;-14.60;60.65;99428.18;1700966;83;21158;-62
2021/01/16 09:02:13;;;;;;;21.87;7.65;;;;;;;-14.56;60.33;99429.42;1697226;84;21188;-62
2021/01/16 09:04:44;;;;;;;26.80;9.00;;;;;;;-14.57;60.01;99426.50;1698074;84;21689;-62
2021/01/16 09:07:20;;;;;;;32.65;13.38;;;;;;;-14.62;59.87;99435.72;1699055;83;21605;-62
2021/01/16 09:09:56;;;;;;;35.08;14.43;;;;;;;-14.64;59.80;99429.89;1725268;83;21135;-64
2021/01/16 09:12:40;;;;;;;35.55;12.03;;;;;;;-14.64;59.67;99433.66;1728005;83;21202;-65
2021/01/16 09:15:11;;;;;;;27.87;10.48;;;;;;;-14.68;59.54;99437.01;1729475;83;21143;-62
2021/01/16 09:17:40;;;;;;;32.45;12.95;;;;;;;-14.70;59.76;99459.59;1726525;83;21732;-64
